sensor_id;sensor_type;location;lat;lon;timestamp;P1;durP1;ratioP1;P2;durP2;ratioP2
35959;SDS011;22043;50.970;7.192;2022-10-19T00:00:19;11.50;;;4.38;;
35959;SDS011;22043;50.970;7.192;2022-10-19T00:02:44;11.45;;;4.57;;
35959;SDS011;22043;50.970;7.192;2022-10-19T00:05:10;11.38;;;4.35;;
35959;SDS011;22043;50.970;7.192;2022-10-19T00:07:36;13.57;;;4.18;;
35959;SDS011;22043;50.970;7.192;2022-10-19T00:10:02;13.50;;;4.20;;
35959;SDS011;22043;50.970;7.192;2022-10-19T00:12:28;10.37;;;3.60;;
35959;SDS011;22043;50.970;7.192;2022-10-19T00:14:54;20.35;;;4.20;;
35959;SDS011;22043;50.970;7.192;2022-10-19T00:17:20;11.77;;;4.00;;
35959;SDS011;22043;50.970;7.192;2022-10-19T00:19:46;12.00;;;4.13;;
35959;SDS011;22043;50.970;7.192;2022-10-19T00:22:11;10.60;;;4.50;;
35959;SDS011;22043;50.970;7.192;2022-10-19T00:24:37;9.35;;;4.15;;
35959;SDS011;22043;50.970;7.192;2022-10-19T00:27:03;13.15;;;3.83;;
35959;SDS011;22043;50.970;7.192;2022-10-19T00:29:29;8.55;;;4.32;;
35959;SDS011;22043;50.970;7.192;2022-10-19T00:31:55;6.68;;;3.38;;
35959;SDS011;22043;50.970;7.192;2022-10-19T00:34:20;10.43;;;3.80;;
35959;SDS011;22043;50.970;7.192;2022-10-19T00:36:46;10.90;;;3.90;;
35959;SDS011;22043;50.970;7.192;2022-10-19T00:39:13;13.32;;;3.85;;
35959;SDS011;22043;50.970;7.192;2022-10-19T00:44:53;8.90;;;3.50;;
35959;SDS011;22043;50.970;7.192;2022-10-19T00:46:56;10.27;;;3.50;;
35959;SDS011;22043;50.970;7.192;2022-10-19T00:49:26;12.23;;;3.72;;
35959;SDS011;22043;50.970;7.192;2022-10-19T00:51:57;12.77;;;3.83;;
35959;SDS011;22043;50.970;7.192;2022-10-19T00:54:28;8.48;;;3.50;;
35959;SDS011;22043;50.970;7.192;2022-10-19T00:56:56;14.60;;;3.60;;
35959;SDS011;22043;50.970;7.192;2022-10-19T00:59:22;10.25;;;3.15;;
35959;SDS011;22043;50.970;7.192;2022-10-19T01:01:51;13.30;;;3.88;;
35959;SDS011;22043;50.970;7.192;2022-10-19T01:04:18;7.55;;;3.28;;
35959;SDS011;22043;50.970;7.192;2022-10-19T01:06:45;10.07;;;3.40;;
35959;SDS011;22043;50.970;7.192;2022-10-19T01:09:11;11.02;;;4.15;;
35959;SDS011;22043;50.970;7.192;2022-10-19T01:11:58;13.95;;;3.35;;
35959;SDS011;22043;50.970;7.192;2022-10-19T01:14:47;7.80;;;3.13;;
35959;SDS011;22043;50.970;7.192;2022-10-19T01:22:59;6.63;;;2.72;;
35959;SDS011;22043;50.970;7.192;2022-10-19T01:31:42;12.65;;;2.97;;
35959;SDS011;22043;50.970;7.192;2022-10-19T01:34:52;10.82;;;3.45;;
35959;SDS011;22043;50.970;7.192;2022-10-19T01:40:07;8.57;;;3.90;;
35959;SDS011;22043;50.970;7.192;2022-10-19T01:42:46;12.43;;;2.95;;
35959;SDS011;22043;50.970;7.192;2022-10-19T01:45:29;8.90;;;3.03;;
35959;SDS011;22043;50.970;7.192;2022-10-19T01:48:04;5.55;;;2.97;;
35959;SDS011;22043;50.970;7.192;2022-10-19T01:50:46;8.35;;;3.22;;
35959;SDS011;22043;50.970;7.192;2022-10-19T01:53:38;9.45;;;3.45;;
35959;SDS011;22043;50.970;7.192;2022-10-19T01:56:07;10.27;;;3.20;;
35959;SDS011;22043;50.970;7.192;2022-10-19T01:58:34;7.55;;;3.15;;
35959;SDS011;22043;50.970;7.192;2022-10-19T02:01:04;11.88;;;3.60;;
35959;SDS011;22043;50.970;7.192;2022-10-19T02:03:33;13.63;;;2.90;;
35959;SDS011;22043;50.970;7.192;2022-10-19T02:05:59;12.70;;;3.25;;
35959;SDS011;22043;50.970;7.192;2022-10-19T02:08:29;9.68;;;3.20;;
35959;SDS011;22043;50.970;7.192;2022-10-19T02:11:02;10.38;;;2.95;;
35959;SDS011;22043;50.970;7.192;2022-10-19T02:13:29;7.03;;;2.53;;
35959;SDS011;22043;50.970;7.192;2022-10-19T02:15:56;9.40;;;3.03;;
35959;SDS011;22043;50.970;7.192;2022-10-19T02:18:28;12.68;;;3.50;;
35959;SDS011;22043;50.970;7.192;2022-10-19T02:20:59;10.68;;;3.30;;
35959;SDS011;22043;50.970;7.192;2022-10-19T02:23:26;12.05;;;3.40;;
35959;SDS011;22043;50.970;7.192;2022-10-19T02:25:52;8.63;;;2.88;;
35959;SDS011;22043;50.970;7.192;2022-10-19T02:28:18;10.75;;;3.92;;
35959;SDS011;22043;50.970;7.192;2022-10-19T02:30:45;9.85;;;4.05;;
35959;SDS011;22043;50.970;7.192;2022-10-19T02:33:10;9.13;;;3.47;;
35959;SDS011;22043;50.970;7.192;2022-10-19T02:35:36;9.85;;;3.83;;
35959;SDS011;22043;50.970;7.192;2022-10-19T02:38:02;9.50;;;2.67;;
35959;SDS011;22043;50.970;7.192;2022-10-19T02:40:31;10.33;;;2.97;;
35959;SDS011;22043;50.970;7.192;2022-10-19T02:43:06;6.80;;;3.15;;
35959;SDS011;22043;50.970;7.192;2022-10-19T02:45:38;6.78;;;2.45;;
35959;SDS011;22043;50.970;7.192;2022-10-19T02:48:10;8.77;;;2.78;;
35959;SDS011;22043;50.970;7.192;2022-10-19T02:50:46;15.80;;;2.53;;
35959;SDS011;22043;50.970;7.192;2022-10-19T02:53:12;10.85;;;2.45;;
35959;SDS011;22043;50.970;7.192;2022-10-19T02:55:38;8.20;;;2.58;;
35959;SDS011;22043;50.970;7.192;2022-10-19T02:58:04;9.27;;;2.83;;
35959;SDS011;22043;50.970;7.192;2022-10-19T03:00:29;8.70;;;2.88;;
35959;SDS011;22043;50.970;7.192;2022-10-19T03:02:55;12.48;;;2.38;;
35959;SDS011;22043;50.970;7.192;2022-10-19T03:05:21;13.48;;;3.08;;
35959;SDS011;22043;50.970;7.192;2022-10-19T03:07:46;14.38;;;4.03;;
35959;SDS011;22043;50.970;7.192;2022-10-19T03:10:12;13.18;;;2.75;;
35959;SDS011;22043;50.970;7.192;2022-10-19T03:12:38;14.90;;;4.00;;
35959;SDS011;22043;50.970;7.192;2022-10-19T03:15:03;9.50;;;2.60;;
35959;SDS011;22043;50.970;7.192;2022-10-19T03:17:29;6.63;;;2.90;;
35959;SDS011;22043;50.970;7.192;2022-10-19T03:19:55;10.55;;;2.60;;
35959;SDS011;22043;50.970;7.192;2022-10-19T03:22:21;7.85;;;2.72;;
35959;SDS011;22043;50.970;7.192;2022-10-19T03:24:46;7.78;;;3.00;;
35959;SDS011;22043;50.970;7.192;2022-10-19T03:27:12;11.25;;;2.83;;
35959;SDS011;22043;50.970;7.192;2022-10-19T03:29:38;10.15;;;2.55;;
35959;SDS011;22043;50.970;7.192;2022-10-19T03:32:03;8.40;;;3.30;;
35959;SDS011;22043;50.970;7.192;2022-10-19T03:34:29;9.35;;;2.90;;
35959;SDS011;22043;50.970;7.192;2022-10-19T03:36:55;8.98;;;2.70;;
35959;SDS011;22043;50.970;7.192;2022-10-19T03:39:23;5.57;;;2.83;;
35959;SDS011;22043;50.970;7.192;2022-10-19T03:41:49;8.93;;;3.30;;
35959;SDS011;22043;50.970;7.192;2022-10-19T03:44:15;9.07;;;3.47;;
35959;SDS011;22043;50.970;7.192;2022-10-19T03:46:40;10.20;;;3.40;;
35959;SDS011;22043;50.970;7.192;2022-10-19T03:49:06;6.40;;;3.03;;
35959;SDS011;22043;50.970;7.192;2022-10-19T03:51:33;8.93;;;3.30;;
35959;SDS011;22043;50.970;7.192;2022-10-19T03:54:00;10.38;;;3.35;;
35959;SDS011;22043;50.970;7.192;2022-10-19T03:56:31;11.18;;;3.63;;
35959;SDS011;22043;50.970;7.192;2022-10-19T03:58:59;10.70;;;3.17;;
35959;SDS011;22043;50.970;7.192;2022-10-19T04:01:26;7.50;;;3.00;;
35959;SDS011;22043;50.970;7.192;2022-10-19T04:04:01;13.55;;;3.63;;
35959;SDS011;22043;50.970;7.192;2022-10-19T04:06:30;8.10;;;3.25;;
35959;SDS011;22043;50.970;7.192;2022-10-19T04:08:58;11.25;;;3.60;;
35959;SDS011;22043;50.970;7.192;2022-10-19T04:11:25;8.60;;;3.63;;
35959;SDS011;22043;50.970;7.192;2022-10-19T04:16:18;10.25;;;3.42;;
35959;SDS011;22043;50.970;7.192;2022-10-19T04:18:45;9.38;;;3.45;;
35959;SDS011;22043;50.970;7.192;2022-10-19T04:21:46;8.25;;;3.60;;
35959;SDS011;22043;50.970;7.192;2022-10-19T04:24:06;8.65;;;3.15;;
35959;SDS011;22043;50.970;7.192;2022-10-19T04:26:36;15.30;;;3.42;;
35959;SDS011;22043;50.970;7.192;2022-10-19T04:29:03;12.43;;;3.72;;
35959;SDS011;22043;50.970;7.192;2022-10-19T04:31:29;12.32;;;3.45;;
35959;SDS011;22043;50.970;7.192;2022-10-19T04:33:55;10.18;;;3.38;;
35959;SDS011;22043;50.970;7.192;2022-10-19T04:36:21;10.63;;;3.33;;
35959;SDS011;22043;50.970;7.192;2022-10-19T04:38:47;11.48;;;3.13;;
35959;SDS011;22043;50.970;7.192;2022-10-19T04:41:14;14.25;;;3.63;;
35959;SDS011;22043;50.970;7.192;2022-10-19T04:46:13;9.75;;;3.95;;
35959;SDS011;22043;50.970;7.192;2022-10-19T04:48:43;9.45;;;3.97;;
35959;SDS011;22043;50.970;7.192;2022-10-19T04:51:10;8.52;;;3.03;;
35959;SDS011;22043;50.970;7.192;2022-10-19T04:53:36;8.93;;;3.25;;
35959;SDS011;22043;50.970;7.192;2022-10-19T04:56:04;17.20;;;3.70;;
35959;SDS011;22043;50.970;7.192;2022-10-19T04:58:31;9.90;;;3.08;;
35959;SDS011;22043;50.970;7.192;2022-10-19T05:00:57;8.32;;;2.78;;
35959;SDS011;22043;50.970;7.192;2022-10-19T05:03:22;9.25;;;3.08;;
35959;SDS011;22043;50.970;7.192;2022-10-19T05:05:48;14.90;;;3.50;;
35959;SDS011;22043;50.970;7.192;2022-10-19T05:08:14;9.60;;;3.08;;
35959;SDS011;22043;50.970;7.192;2022-10-19T05:10:39;9.10;;;3.08;;
35959;SDS011;22043;50.970;7.192;2022-10-19T05:13:05;8.63;;;2.88;;
35959;SDS011;22043;50.970;7.192;2022-10-19T05:15:31;13.00;;;3.28;;
35959;SDS011;22043;50.970;7.192;2022-10-19T05:17:56;11.30;;;3.05;;
35959;SDS011;22043;50.970;7.192;2022-10-19T05:20:22;10.77;;;2.95;;
35959;SDS011;22043;50.970;7.192;2022-10-19T05:22:48;11.45;;;3.00;;
35959;SDS011;22043;50.970;7.192;2022-10-19T05:25:14;9.15;;;3.17;;
35959;SDS011;22043;50.970;7.192;2022-10-19T05:27:40;11.45;;;3.10;;
35959;SDS011;22043;50.970;7.192;2022-10-19T05:30:06;9.27;;;2.75;;
35959;SDS011;22043;50.970;7.192;2022-10-19T05:32:32;10.43;;;3.05;;
35959;SDS011;22043;50.970;7.192;2022-10-19T05:34:59;13.02;;;3.42;;
35959;SDS011;22043;50.970;7.192;2022-10-19T05:37:24;9.10;;;3.10;;
35959;SDS011;22043;50.970;7.192;2022-10-19T05:39:50;7.25;;;2.85;;
35959;SDS011;22043;50.970;7.192;2022-10-19T05:42:16;8.13;;;2.58;;
35959;SDS011;22043;50.970;7.192;2022-10-19T05:44:42;9.65;;;3.17;;
35959;SDS011;22043;50.970;7.192;2022-10-19T05:47:07;8.30;;;3.08;;
35959;SDS011;22043;50.970;7.192;2022-10-19T05:49:33;9.70;;;3.42;;
35959;SDS011;22043;50.970;7.192;2022-10-19T05:51:59;11.45;;;4.18;;
35959;SDS011;22043;50.970;7.192;2022-10-19T05:54:24;13.15;;;3.15;;
35959;SDS011;22043;50.970;7.192;2022-10-19T05:56:50;12.93;;;4.20;;
35959;SDS011;22043;50.970;7.192;2022-10-19T05:59:17;10.88;;;3.17;;
35959;SDS011;22043;50.970;7.192;2022-10-19T06:04:10;10.10;;;3.67;;
35959;SDS011;22043;50.970;7.192;2022-10-19T06:06:38;14.98;;;4.43;;
35959;SDS011;22043;50.970;7.192;2022-10-19T06:09:04;11.10;;;3.70;;
35959;SDS011;22043;50.970;7.192;2022-10-19T06:11:31;11.82;;;4.45;;
35959;SDS011;22043;50.970;7.192;2022-10-19T06:13:59;11.65;;;3.47;;
35959;SDS011;22043;50.970;7.192;2022-10-19T06:16:28;9.45;;;3.17;;
35959;SDS011;22043;50.970;7.192;2022-10-19T06:18:55;10.95;;;4.00;;
35959;SDS011;22043;50.970;7.192;2022-10-19T06:21:22;9.23;;;3.38;;
35959;SDS011;22043;50.970;7.192;2022-10-19T06:23:57;12.80;;;3.67;;
35959;SDS011;22043;50.970;7.192;2022-10-19T06:26:26;9.43;;;3.25;;
35959;SDS011;22043;50.970;7.192;2022-10-19T06:28:56;10.68;;;5.20;;
35959;SDS011;22043;50.970;7.192;2022-10-19T06:31:24;10.30;;;4.10;;
35959;SDS011;22043;50.970;7.192;2022-10-19T06:33:51;15.45;;;6.07;;
35959;SDS011;22043;50.970;7.192;2022-10-19T06:36:18;8.15;;;3.60;;
35959;SDS011;22043;50.970;7.192;2022-10-19T06:38:45;13.82;;;4.55;;
35959;SDS011;22043;50.970;7.192;2022-10-19T06:41:11;9.63;;;4.28;;
35959;SDS011;22043;50.970;7.192;2022-10-19T06:43:37;13.07;;;4.82;;
35959;SDS011;22043;50.970;7.192;2022-10-19T06:46:04;13.10;;;5.50;;
35959;SDS011;22043;50.970;7.192;2022-10-19T06:48:31;14.93;;;6.28;;
35959;SDS011;22043;50.970;7.192;2022-10-19T06:50:57;12.98;;;7.20;;
35959;SDS011;22043;50.970;7.192;2022-10-19T06:53:24;14.65;;;6.50;;
35959;SDS011;22043;50.970;7.192;2022-10-19T06:55:49;15.65;;;7.47;;
35959;SDS011;22043;50.970;7.192;2022-10-19T06:58:15;12.88;;;6.63;;
35959;SDS011;22043;50.970;7.192;2022-10-19T07:00:41;26.50;;;7.15;;
35959;SDS011;22043;50.970;7.192;2022-10-19T07:03:06;15.77;;;8.85;;
35959;SDS011;22043;50.970;7.192;2022-10-19T07:05:32;14.10;;;6.95;;
35959;SDS011;22043;50.970;7.192;2022-10-19T07:07:57;13.20;;;5.63;;
35959;SDS011;22043;50.970;7.192;2022-10-19T07:10:23;13.85;;;5.82;;
35959;SDS011;22043;50.970;7.192;2022-10-19T07:12:49;14.77;;;7.53;;
35959;SDS011;22043;50.970;7.192;2022-10-19T07:15:14;16.77;;;7.20;;
35959;SDS011;22043;50.970;7.192;2022-10-19T07:17:40;18.58;;;7.60;;
35959;SDS011;22043;50.970;7.192;2022-10-19T07:20:06;14.63;;;6.75;;
35959;SDS011;22043;50.970;7.192;2022-10-19T07:22:32;11.95;;;6.00;;
35959;SDS011;22043;50.970;7.192;2022-10-19T07:24:58;14.13;;;5.25;;
35959;SDS011;22043;50.970;7.192;2022-10-19T07:27:23;17.15;;;5.50;;
35959;SDS011;22043;50.970;7.192;2022-10-19T07:29:49;8.27;;;4.70;;
35959;SDS011;22043;50.970;7.192;2022-10-19T07:32:15;14.52;;;5.22;;
35959;SDS011;22043;50.970;7.192;2022-10-19T07:34:40;15.48;;;6.28;;
35959;SDS011;22043;50.970;7.192;2022-10-19T07:37:06;10.60;;;4.22;;
35959;SDS011;22043;50.970;7.192;2022-10-19T07:39:31;13.25;;;4.65;;
35959;SDS011;22043;50.970;7.192;2022-10-19T07:41:57;9.60;;;4.22;;
35959;SDS011;22043;50.970;7.192;2022-10-19T07:44:23;12.75;;;4.82;;
35959;SDS011;22043;50.970;7.192;2022-10-19T07:46:48;12.13;;;4.68;;
35959;SDS011;22043;50.970;7.192;2022-10-19T07:49:14;11.07;;;4.43;;
35959;SDS011;22043;50.970;7.192;2022-10-19T07:51:43;7.60;;;4.10;;
35959;SDS011;22043;50.970;7.192;2022-10-19T07:54:09;10.93;;;4.45;;
35959;SDS011;22043;50.970;7.192;2022-10-19T07:56:35;9.90;;;4.80;;
35959;SDS011;22043;50.970;7.192;2022-10-19T07:59:01;12.25;;;5.35;;
35959;SDS011;22043;50.970;7.192;2022-10-19T08:01:30;10.55;;;4.60;;
35959;SDS011;22043;50.970;7.192;2022-10-19T08:03:59;10.90;;;4.25;;
35959;SDS011;22043;50.970;7.192;2022-10-19T08:08:52;11.77;;;4.72;;
35959;SDS011;22043;50.970;7.192;2022-10-19T08:11:25;9.13;;;4.53;;
35959;SDS011;22043;50.970;7.192;2022-10-19T08:13:53;10.07;;;4.07;;
35959;SDS011;22043;50.970;7.192;2022-10-19T08:16:24;10.48;;;4.25;;
35959;SDS011;22043;50.970;7.192;2022-10-19T08:18:55;9.10;;;3.75;;
35959;SDS011;22043;50.970;7.192;2022-10-19T08:21:23;9.55;;;4.47;;
35959;SDS011;22043;50.970;7.192;2022-10-19T08:23:50;10.73;;;4.10;;
35959;SDS011;22043;50.970;7.192;2022-10-19T08:26:16;12.48;;;4.72;;
35959;SDS011;22043;50.970;7.192;2022-10-19T08:28:41;8.75;;;3.63;;
35959;SDS011;22043;50.970;7.192;2022-10-19T08:31:08;9.68;;;3.95;;
35959;SDS011;22043;50.970;7.192;2022-10-19T08:33:34;9.15;;;4.20;;
35959;SDS011;22043;50.970;7.192;2022-10-19T08:36:03;7.20;;;3.67;;
35959;SDS011;22043;50.970;7.192;2022-10-19T08:38:29;11.15;;;4.45;;
35959;SDS011;22043;50.970;7.192;2022-10-19T08:40:55;9.98;;;4.18;;
35959;SDS011;22043;50.970;7.192;2022-10-19T08:43:28;10.57;;;3.80;;
35959;SDS011;22043;50.970;7.192;2022-10-19T08:49:16;11.32;;;3.58;;
35959;SDS011;22043;50.970;7.192;2022-10-19T08:51:44;11.55;;;3.58;;
35959;SDS011;22043;50.970;7.192;2022-10-19T08:54:17;9.90;;;3.50;;
35959;SDS011;22043;50.970;7.192;2022-10-19T08:56:47;9.70;;;4.03;;
35959;SDS011;22043;50.970;7.192;2022-10-19T08:59:26;10.23;;;3.92;;
35959;SDS011;22043;50.970;7.192;2022-10-19T09:02:09;11.50;;;4.32;;
35959;SDS011;22043;50.970;7.192;2022-10-19T09:05:00;8.30;;;3.75;;
35959;SDS011;22043;50.970;7.192;2022-10-19T09:07:30;8.38;;;3.17;;
35959;SDS011;22043;50.970;7.192;2022-10-19T09:10:23;7.53;;;3.53;;
35959;SDS011;22043;50.970;7.192;2022-10-19T09:15:32;6.80;;;3.28;;
35959;SDS011;22043;50.970;7.192;2022-10-19T09:18:04;6.53;;;3.10;;
35959;SDS011;22043;50.970;7.192;2022-10-19T09:20:40;6.50;;;3.00;;
35959;SDS011;22043;50.970;7.192;2022-10-19T09:26:15;6.32;;;2.88;;
35959;SDS011;22043;50.970;7.192;2022-10-19T09:28:59;8.48;;;3.15;;
35959;SDS011;22043;50.970;7.192;2022-10-19T09:31:36;9.23;;;2.83;;
35959;SDS011;22043;50.970;7.192;2022-10-19T09:34:09;5.70;;;2.85;;
35959;SDS011;22043;50.970;7.192;2022-10-19T09:36:45;6.25;;;2.83;;
35959;SDS011;22043;50.970;7.192;2022-10-19T09:39:17;7.38;;;2.70;;
35959;SDS011;22043;50.970;7.192;2022-10-19T09:41:43;7.90;;;2.63;;
35959;SDS011;22043;50.970;7.192;2022-10-19T09:44:11;13.10;;;3.20;;
35959;SDS011;22043;50.970;7.192;2022-10-19T09:49:43;10.48;;;2.88;;
35959;SDS011;22043;50.970;7.192;2022-10-19T09:52:21;8.48;;;2.50;;
35959;SDS011;22043;50.970;7.192;2022-10-19T09:54:49;9.47;;;3.57;;
35959;SDS011;22043;50.970;7.192;2022-10-19T09:57:22;7.35;;;2.42;;
35959;SDS011;22043;50.970;7.192;2022-10-19T09:59:50;5.63;;;2.28;;
35959;SDS011;22043;50.970;7.192;2022-10-19T10:02:18;5.35;;;2.35;;
35959;SDS011;22043;50.970;7.192;2022-10-19T10:04:56;6.78;;;2.20;;
35959;SDS011;22043;50.970;7.192;2022-10-19T10:07:39;8.82;;;2.45;;
35959;SDS011;22043;50.970;7.192;2022-10-19T10:12:45;8.88;;;2.30;;
35959;SDS011;22043;50.970;7.192;2022-10-19T10:15:16;7.50;;;2.20;;
35959;SDS011;22043;50.970;7.192;2022-10-19T10:17:45;8.95;;;2.40;;
35959;SDS011;22043;50.970;7.192;2022-10-19T10:20:25;5.67;;;2.07;;
35959;SDS011;22043;50.970;7.192;2022-10-19T10:23:03;9.30;;;2.50;;
35959;SDS011;22043;50.970;7.192;2022-10-19T10:25:31;7.88;;;2.50;;
35959;SDS011;22043;50.970;7.192;2022-10-19T10:28:16;9.25;;;2.30;;
35959;SDS011;22043;50.970;7.192;2022-10-19T10:30:43;5.43;;;2.47;;
35959;SDS011;22043;50.970;7.192;2022-10-19T10:33:17;5.97;;;2.00;;
35959;SDS011;22043;50.970;7.192;2022-10-19T10:35:51;8.93;;;2.17;;
35959;SDS011;22043;50.970;7.192;2022-10-19T10:38:54;10.93;;;3.08;;
35959;SDS011;22043;50.970;7.192;2022-10-19T10:41:15;7.18;;;2.45;;
35959;SDS011;22043;50.970;7.192;2022-10-19T10:44:00;13.43;;;2.92;;
35959;SDS011;22043;50.970;7.192;2022-10-19T10:46:50;9.25;;;3.00;;
35959;SDS011;22043;50.970;7.192;2022-10-19T10:51:56;7.15;;;2.10;;
35959;SDS011;22043;50.970;7.192;2022-10-19T10:56:56;9.68;;;2.88;;
35959;SDS011;22043;50.970;7.192;2022-10-19T10:59:30;4.07;;;1.83;;
35959;SDS011;22043;50.970;7.192;2022-10-19T11:02:12;5.32;;;1.90;;
35959;SDS011;22043;50.970;7.192;2022-10-19T11:04:43;8.00;;;1.75;;
35959;SDS011;22043;50.970;7.192;2022-10-19T11:07:19;9.02;;;2.75;;
35959;SDS011;22043;50.970;7.192;2022-10-19T11:10:34;7.82;;;1.95;;
35959;SDS011;22043;50.970;7.192;2022-10-19T11:13:11;5.90;;;2.40;;
35959;SDS011;22043;50.970;7.192;2022-10-19T11:16:01;7.50;;;1.90;;
35959;SDS011;22043;50.970;7.192;2022-10-19T11:18:50;7.55;;;2.25;;
35959;SDS011;22043;50.970;7.192;2022-10-19T11:21:25;7.90;;;2.38;;
35959;SDS011;22043;50.970;7.192;2022-10-19T11:24:13;5.47;;;1.83;;
35959;SDS011;22043;50.970;7.192;2022-10-19T11:29:38;5.07;;;1.83;;
35959;SDS011;22043;50.970;7.192;2022-10-19T11:32:19;7.82;;;2.28;;
35959;SDS011;22043;50.970;7.192;2022-10-19T11:41:03;6.32;;;1.58;;
35959;SDS011;22043;50.970;7.192;2022-10-19T11:49:01;9.73;;;2.70;;
35959;SDS011;22043;50.970;7.192;2022-10-19T11:51:52;5.25;;;1.45;;
35959;SDS011;22043;50.970;7.192;2022-10-19T11:54:37;7.90;;;2.58;;
35959;SDS011;22043;50.970;7.192;2022-10-19T11:57:22;5.68;;;2.08;;
35959;SDS011;22043;50.970;7.192;2022-10-19T12:00:09;6.90;;;1.80;;
35959;SDS011;22043;50.970;7.192;2022-10-19T12:14:26;6.10;;;1.80;;
35959;SDS011;22043;50.970;7.192;2022-10-19T12:17:01;8.00;;;2.08;;
35959;SDS011;22043;50.970;7.192;2022-10-19T12:19:33;9.75;;;1.85;;
35959;SDS011;22043;50.970;7.192;2022-10-19T12:22:03;5.57;;;1.67;;
35959;SDS011;22043;50.970;7.192;2022-10-19T12:24:36;6.22;;;2.00;;
35959;SDS011;22043;50.970;7.192;2022-10-19T12:27:01;11.00;;;2.05;;
35959;SDS011;22043;50.970;7.192;2022-10-19T12:29:30;8.93;;;1.90;;
35959;SDS011;22043;50.970;7.192;2022-10-19T12:32:02;5.38;;;1.60;;
35959;SDS011;22043;50.970;7.192;2022-10-19T12:34:35;6.22;;;1.42;;
35959;SDS011;22043;50.970;7.192;2022-10-19T12:42:48;8.25;;;2.10;;
35959;SDS011;22043;50.970;7.192;2022-10-19T12:48:22;7.32;;;2.65;;
35959;SDS011;22043;50.970;7.192;2022-10-19T12:53:23;6.88;;;2.60;;
35959;SDS011;22043;50.970;7.192;2022-10-19T12:56:01;8.82;;;2.03;;
35959;SDS011;22043;50.970;7.192;2022-10-19T12:58:33;7.50;;;2.38;;
35959;SDS011;22043;50.970;7.192;2022-10-19T13:01:00;8.00;;;2.45;;
35959;SDS011;22043;50.970;7.192;2022-10-19T13:03:34;8.77;;;1.83;;
35959;SDS011;22043;50.970;7.192;2022-10-19T13:06:45;6.93;;;2.50;;
35959;SDS011;22043;50.970;7.192;2022-10-19T13:08:55;6.25;;;1.50;;
35959;SDS011;22043;50.970;7.192;2022-10-19T13:11:22;8.52;;;2.40;;
35959;SDS011;22043;50.970;7.192;2022-10-19T13:16:40;7.72;;;2.50;;
35959;SDS011;22043;50.970;7.192;2022-10-19T13:19:21;9.32;;;2.55;;
35959;SDS011;22043;50.970;7.192;2022-10-19T13:21:51;7.63;;;2.88;;
35959;SDS011;22043;50.970;7.192;2022-10-19T13:38:10;8.25;;;2.40;;
35959;SDS011;22043;50.970;7.192;2022-10-19T13:43:17;7.90;;;2.45;;
35959;SDS011;22043;50.970;7.192;2022-10-19T13:45:53;7.85;;;2.20;;
35959;SDS011;22043;50.970;7.192;2022-10-19T13:50:58;10.07;;;2.75;;
35959;SDS011;22043;50.970;7.192;2022-10-19T13:56:25;6.35;;;2.60;;
35959;SDS011;22043;50.970;7.192;2022-10-19T13:59:16;11.85;;;6.57;;
35959;SDS011;22043;50.970;7.192;2022-10-19T14:04:45;8.98;;;2.67;;
35959;SDS011;22043;50.970;7.192;2022-10-19T14:07:29;10.32;;;3.90;;
35959;SDS011;22043;50.970;7.192;2022-10-19T14:10:11;8.88;;;3.15;;
35959;SDS011;22043;50.970;7.192;2022-10-19T14:12:43;15.40;;;6.55;;
35959;SDS011;22043;50.970;7.192;2022-10-19T14:17:42;9.02;;;2.70;;
35959;SDS011;22043;50.970;7.192;2022-10-19T14:20:28;6.97;;;2.85;;
35959;SDS011;22043;50.970;7.192;2022-10-19T14:23:18;10.23;;;3.13;;
35959;SDS011;22043;50.970;7.192;2022-10-19T14:25:51;8.27;;;2.50;;
35959;SDS011;22043;50.970;7.192;2022-10-19T14:28:22;8.38;;;2.33;;
35959;SDS011;22043;50.970;7.192;2022-10-19T14:33:23;6.95;;;2.60;;
35959;SDS011;22043;50.970;7.192;2022-10-19T14:35:50;11.38;;;2.72;;
35959;SDS011;22043;50.970;7.192;2022-10-19T14:38:17;6.35;;;2.08;;
35959;SDS011;22043;50.970;7.192;2022-10-19T14:40:56;7.63;;;2.28;;
35959;SDS011;22043;50.970;7.192;2022-10-19T14:43:23;6.35;;;2.08;;
35959;SDS011;22043;50.970;7.192;2022-10-19T14:48:34;6.57;;;2.03;;
35959;SDS011;22043;50.970;7.192;2022-10-19T14:51:03;8.75;;;2.38;;
35959;SDS011;22043;50.970;7.192;2022-10-19T14:53:45;5.88;;;1.98;;
35959;SDS011;22043;50.970;7.192;2022-10-19T14:56:27;7.03;;;2.17;;
35959;SDS011;22043;50.970;7.192;2022-10-19T14:58:59;6.45;;;2.33;;
35959;SDS011;22043;50.970;7.192;2022-10-19T15:01:28;4.38;;;1.98;;
35959;SDS011;22043;50.970;7.192;2022-10-19T15:03:54;6.97;;;2.35;;
35959;SDS011;22043;50.970;7.192;2022-10-19T15:06:21;5.97;;;2.10;;
35959;SDS011;22043;50.970;7.192;2022-10-19T15:08:56;7.82;;;2.15;;
35959;SDS011;22043;50.970;7.192;2022-10-19T15:11:30;7.80;;;2.10;;
35959;SDS011;22043;50.970;7.192;2022-10-19T15:14:06;9.43;;;2.60;;
35959;SDS011;22043;50.970;7.192;2022-10-19T15:16:45;8.02;;;2.30;;
35959;SDS011;22043;50.970;7.192;2022-10-19T15:19:15;6.55;;;2.30;;
35959;SDS011;22043;50.970;7.192;2022-10-19T15:21:43;5.40;;;2.05;;
35959;SDS011;22043;50.970;7.192;2022-10-19T15:24:24;7.00;;;2.40;;
35959;SDS011;22043;50.970;7.192;2022-10-19T15:26:52;8.55;;;2.00;;
35959;SDS011;22043;50.970;7.192;2022-10-19T15:29:20;6.95;;;2.17;;
35959;SDS011;22043;50.970;7.192;2022-10-19T15:31:47;7.28;;;2.03;;
35959;SDS011;22043;50.970;7.192;2022-10-19T15:37:12;7.82;;;2.13;;
35959;SDS011;22043;50.970;7.192;2022-10-19T15:39:42;8.88;;;2.47;;
35959;SDS011;22043;50.970;7.192;2022-10-19T15:42:50;6.60;;;2.60;;
35959;SDS011;22043;50.970;7.192;2022-10-19T15:45:00;5.30;;;1.58;;
35959;SDS011;22043;50.970;7.192;2022-10-19T15:47:26;6.53;;;2.05;;
35959;SDS011;22043;50.970;7.192;2022-10-19T15:49:56;7.15;;;1.85;;
35959;SDS011;22043;50.970;7.192;2022-10-19T15:52:24;4.97;;;1.65;;
35959;SDS011;22043;50.970;7.192;2022-10-19T15:54:59;4.05;;;1.60;;
35959;SDS011;22043;50.970;7.192;2022-10-19T15:59:54;13.90;;;1.80;;
35959;SDS011;22043;50.970;7.192;2022-10-19T16:02:21;11.05;;;1.52;;
35959;SDS011;22043;50.970;7.192;2022-10-19T16:04:49;6.97;;;1.30;;
35959;SDS011;22043;50.970;7.192;2022-10-19T16:07:20;5.82;;;1.38;;
35959;SDS011;22043;50.970;7.192;2022-10-19T16:09:50;6.20;;;1.20;;
35959;SDS011;22043;50.970;7.192;2022-10-19T16:12:16;6.13;;;1.40;;
35959;SDS011;22043;50.970;7.192;2022-10-19T16:14:41;10.02;;;1.75;;
35959;SDS011;22043;50.970;7.192;2022-10-19T16:17:08;10.40;;;1.30;;
35959;SDS011;22043;50.970;7.192;2022-10-19T16:19:36;7.18;;;1.30;;
35959;SDS011;22043;50.970;7.192;2022-10-19T16:22:02;15.05;;;2.08;;
35959;SDS011;22043;50.970;7.192;2022-10-19T16:24:27;6.75;;;1.38;;
35959;SDS011;22043;50.970;7.192;2022-10-19T16:26:53;8.65;;;1.20;;
35959;SDS011;22043;50.970;7.192;2022-10-19T16:29:19;6.35;;;1.40;;
35959;SDS011;22043;50.970;7.192;2022-10-19T16:31:44;4.07;;;1.30;;
35959;SDS011;22043;50.970;7.192;2022-10-19T16:34:10;6.68;;;1.63;;
35959;SDS011;22043;50.970;7.192;2022-10-19T16:36:36;8.80;;;1.40;;
35959;SDS011;22043;50.970;7.192;2022-10-19T16:39:02;4.40;;;1.38;;
35959;SDS011;22043;50.970;7.192;2022-10-19T16:41:28;7.57;;;1.80;;
35959;SDS011;22043;50.970;7.192;2022-10-19T16:43:55;5.72;;;1.95;;
35959;SDS011;22043;50.970;7.192;2022-10-19T16:46:21;6.97;;;1.65;;
35959;SDS011;22043;50.970;7.192;2022-10-19T16:48:48;7.85;;;1.77;;
35959;SDS011;22043;50.970;7.192;2022-10-19T16:51:24;3.72;;;1.63;;
35959;SDS011;22043;50.970;7.192;2022-10-19T16:53:51;6.10;;;1.85;;
35959;SDS011;22043;50.970;7.192;2022-10-19T16:58:44;9.63;;;1.70;;
35959;SDS011;22043;50.970;7.192;2022-10-19T17:01:11;6.88;;;1.75;;
35959;SDS011;22043;50.970;7.192;2022-10-19T17:03:39;4.70;;;2.05;;
35959;SDS011;22043;50.970;7.192;2022-10-19T17:06:06;6.32;;;1.90;;
35959;SDS011;22043;50.970;7.192;2022-10-19T17:08:32;8.07;;;4.40;;